sensor_id;sensor_type;location;lat;lon;timestamp;temperature;humidity
19258;DHT22;9763;48.780;9.212;2024-01-30T00:00:34;6.80;69.60
19258;DHT22;9763;48.780;9.212;2024-01-30T00:03:58;6.80;69.60
19258;DHT22;9763;48.780;9.212;2024-01-30T00:07:22;6.80;69.60
19258;DHT22;9763;48.780;9.212;2024-01-30T00:10:45;6.80;69.60
19258;DHT22;9763;48.780;9.212;2024-01-30T00:14:09;7.10;70.00
19258;DHT22;9763;48.780;9.212;2024-01-30T00:17:34;6.70;69.50
19258;DHT22;9763;48.780;9.212;2024-01-30T00:20:59;6.70;69.60
19258;DHT22;9763;48.780;9.212;2024-01-30T00:24:22;6.70;69.70
19258;DHT22;9763;48.780;9.212;2024-01-30T00:27:46;6.70;69.70
19258;DHT22;9763;48.780;9.212;2024-01-30T00:31:10;6.70;69.80
19258;DHT22;9763;48.780;9.212;2024-01-30T00:34:36;6.90;70.10
19258;DHT22;9763;48.780;9.212;2024-01-30T00:37:59;6.70;69.90
19258;DHT22;9763;48.780;9.212;2024-01-30T00:41:23;6.70;70.00
19258;DHT22;9763;48.780;9.212;2024-01-30T00:44:47;6.80;70.10
19258;DHT22;9763;48.780;9.212;2024-01-30T00:48:11;6.70;70.10
19258;DHT22;9763;48.780;9.212;2024-01-30T00:51:36;6.70;70.10
19258;DHT22;9763;48.780;9.212;2024-01-30T00:54:59;6.70;70.10
19258;DHT22;9763;48.780;9.212;2024-01-30T00:58:24;6.70;70.20
19258;DHT22;9763;48.780;9.212;2024-01-30T01:01:48;6.70;70.30
19258;DHT22;9763;48.780;9.212;2024-01-30T01:05:11;6.70;70.30
19258;DHT22;9763;48.780;9.212;2024-01-30T01:08:36;6.70;70.30
19258;DHT22;9763;48.780;9.212;2024-01-30T01:12:01;6.70;70.40
19258;DHT22;9763;48.780;9.212;2024-01-30T01:15:25;6.70;70.40
19258;DHT22;9763;48.780;9.212;2024-01-30T01:18:51;6.80;70.50
19258;DHT22;9763;48.780;9.212;2024-01-30T01:22:16;6.80;70.30
19258;DHT22;9763;48.780;9.212;2024-01-30T01:25:42;6.80;70.30
19258;DHT22;9763;48.780;9.212;2024-01-30T01:29:06;6.80;70.30
19258;DHT22;9763;48.780;9.212;2024-01-30T01:32:32;6.80;70.20
19258;DHT22;9763;48.780;9.212;2024-01-30T01:35:56;6.80;70.30
19258;DHT22;9763;48.780;9.212;2024-01-30T01:39:19;6.80;70.20
19258;DHT22;9763;48.780;9.212;2024-01-30T01:42:44;6.70;70.10
19258;DHT22;9763;48.780;9.212;2024-01-30T01:46:08;6.70;70.00
19258;DHT22;9763;48.780;9.212;2024-01-30T01:49:33;6.70;70.10
19258;DHT22;9763;48.780;9.212;2024-01-30T01:52:56;6.70;70.00
19258;DHT22;9763;48.780;9.212;2024-01-30T01:56:21;6.60;70.00
19258;DHT22;9763;48.780;9.212;2024-01-30T01:59:47;6.60;70.10
19258;DHT22;9763;48.780;9.212;2024-01-30T02:03:11;6.60;70.20
19258;DHT22;9763;48.780;9.212;2024-01-30T02:06:36;6.50;70.20
19258;DHT22;9763;48.780;9.212;2024-01-30T02:10:01;6.50;70.00
19258;DHT22;9763;48.780;9.212;2024-01-30T02:13:26;6.50;70.10
19258;DHT22;9763;48.780;9.212;2024-01-30T02:16:51;6.50;70.00
19258;DHT22;9763;48.780;9.212;2024-01-30T02:20:15;6.40;69.90
19258;DHT22;9763;48.780;9.212;2024-01-30T02:23:41;6.40;70.00
19258;DHT22;9763;48.780;9.212;2024-01-30T02:27:06;6.40;70.10
19258;DHT22;9763;48.780;9.212;2024-01-30T02:30:30;6.30;70.00
19258;DHT22;9763;48.780;9.212;2024-01-30T02:33:55;6.30;70.10
19258;DHT22;9763;48.780;9.212;2024-01-30T02:37:19;6.20;70.00
19258;DHT22;9763;48.780;9.212;2024-01-30T02:40:44;6.30;70.20
19258;DHT22;9763;48.780;9.212;2024-01-30T02:44:07;6.20;70.40
19258;DHT22;9763;48.780;9.212;2024-01-30T02:47:31;6.10;70.40
19258;DHT22;9763;48.780;9.212;2024-01-30T02:50:54;6.10;70.40
19258;DHT22;9763;48.780;9.212;2024-01-30T02:54:18;6.10;70.40
19258;DHT22;9763;48.780;9.212;2024-01-30T02:57:43;6.10;70.50
19258;DHT22;9763;48.780;9.212;2024-01-30T03:01:07;6.10;70.40
19258;DHT22;9763;48.780;9.212;2024-01-30T03:04:31;6.10;70.30
19258;DHT22;9763;48.780;9.212;2024-01-30T03:07:55;6.10;70.40
19258;DHT22;9763;48.780;9.212;2024-01-30T03:11:18;6.00;70.40
19258;DHT22;9763;48.780;9.212;2024-01-30T03:14:43;6.00;70.50
19258;DHT22;9763;48.780;9.212;2024-01-30T03:18:07;6.00;70.40
19258;DHT22;9763;48.780;9.212;2024-01-30T03:21:31;5.90;70.40
19258;DHT22;9763;48.780;9.212;2024-01-30T03:24:54;5.90;70.40
19258;DHT22;9763;48.780;9.212;2024-01-30T03:28:17;5.90;70.40
19258;DHT22;9763;48.780;9.212;2024-01-30T03:31:43;5.90;70.40
19258;DHT22;9763;48.780;9.212;2024-01-30T03:35:07;5.90;70.30
19258;DHT22;9763;48.780;9.212;2024-01-30T03:38:31;5.80;70.30
19258;DHT22;9763;48.780;9.212;2024-01-30T03:41:55;6.00;70.50
19258;DHT22;9763;48.780;9.212;2024-01-30T03:45:19;5.80;70.50
19258;DHT22;9763;48.780;9.212;2024-01-30T03:48:45;5.80;70.60
19258;DHT22;9763;48.780;9.212;2024-01-30T03:52:09;5.80;70.70
19258;DHT22;9763;48.780;9.212;2024-01-30T03:55:32;5.80;70.60
19258;DHT22;9763;48.780;9.212;2024-01-30T03:58:57;5.80;70.40
19258;DHT22;9763;48.780;9.212;2024-01-30T04:02:21;5.80;70.40
19258;DHT22;9763;48.780;9.212;2024-01-30T04:05:46;5.70;70.30
19258;DHT22;9763;48.780;9.212;2024-01-30T04:09:10;5.70;71.10
19258;DHT22;9763;48.780;9.212;2024-01-30T04:12:35;5.70;70.30
19258;DHT22;9763;48.780;9.212;2024-01-30T04:15:59;6.20;70.90
19258;DHT22;9763;48.780;9.212;2024-01-30T04:19:23;5.70;70.60
19258;DHT22;9763;48.780;9.212;2024-01-30T04:22:48;5.70;70.60
19258;DHT22;9763;48.780;9.212;2024-01-30T04:26:12;5.60;70.40
19258;DHT22;9763;48.780;9.212;2024-01-30T04:29:35;5.60;70.30
19258;DHT22;9763;48.780;9.212;2024-01-30T04:32:59;5.60;70.40
19258;DHT22;9763;48.780;9.212;2024-01-30T04:36:22;5.60;70.40
19258;DHT22;9763;48.780;9.212;2024-01-30T04:39:47;5.60;70.40
19258;DHT22;9763;48.780;9.212;2024-01-30T04:43:11;5.50;70.30
19258;DHT22;9763;48.780;9.212;2024-01-30T04:46:34;5.50;70.60
19258;DHT22;9763;48.780;9.212;2024-01-30T04:49:58;5.50;70.70
19258;DHT22;9763;48.780;9.212;2024-01-30T04:53:22;5.90;71.20
19258;DHT22;9763;48.780;9.212;2024-01-30T04:56:47;5.50;70.70
19258;DHT22;9763;48.780;9.212;2024-01-30T05:00:11;5.50;70.70
19258;DHT22;9763;48.780;9.212;2024-01-30T05:03:36;5.50;70.80
19258;DHT22;9763;48.780;9.212;2024-01-30T05:06:59;5.50;70.70
19258;DHT22;9763;48.780;9.212;2024-01-30T05:10:23;5.50;70.80
19258;DHT22;9763;48.780;9.212;2024-01-30T05:13:48;5.50;70.60
19258;DHT22;9763;48.780;9.212;2024-01-30T05:17:11;5.40;70.60
19258;DHT22;9763;48.780;9.212;2024-01-30T05:20:35;5.40;70.60
19258;DHT22;9763;48.780;9.212;2024-01-30T05:23:59;5.40;70.50
19258;DHT22;9763;48.780;9.212;2024-01-30T05:27:22;5.40;70.60
19258;DHT22;9763;48.780;9.212;2024-01-30T05:30:47;5.30;70.60
19258;DHT22;9763;48.780;9.212;2024-01-30T05:34:12;5.30;70.60
19258;DHT22;9763;48.780;9.212;2024-01-30T05:37:36;5.30;70.50
19258;DHT22;9763;48.780;9.212;2024-01-30T05:41:00;5.30;70.70
19258;DHT22;9763;48.780;9.212;2024-01-30T05:44:23;5.20;70.60
19258;DHT22;9763;48.780;9.212;2024-01-30T05:47:48;5.20;70.70
19258;DHT22;9763;48.780;9.212;2024-01-30T05:51:12;5.20;70.90
19258;DHT22;9763;48.780;9.212;2024-01-30T05:54:35;5.20;71.10
19258;DHT22;9763;48.780;9.212;2024-01-30T05:57:59;5.20;71.10
19258;DHT22;9763;48.780;9.212;2024-01-30T06:01:23;5.20;71.10
19258;DHT22;9763;48.780;9.212;2024-01-30T06:04:48;5.20;71.20
19258;DHT22;9763;48.780;9.212;2024-01-30T06:08:12;5.20;71.10
19258;DHT22;9763;48.780;9.212;2024-01-30T06:11:35;5.30;71.20
19258;DHT22;9763;48.780;9.212;2024-01-30T06:14:59;5.30;71.30
19258;DHT22;9763;48.780;9.212;2024-01-30T06:18:23;5.30;71.20
19258;DHT22;9763;48.780;9.212;2024-01-30T06:21:50;5.30;71.10
19258;DHT22;9763;48.780;9.212;2024-01-30T06:25:14;5.30;71.00
19258;DHT22;9763;48.780;9.212;2024-01-30T06:28:39;5.30;70.90
19258;DHT22;9763;48.780;9.212;2024-01-30T06:32:02;5.30;70.70
19258;DHT22;9763;48.780;9.212;2024-01-30T06:35:26;5.30;70.90
19258;DHT22;9763;48.780;9.212;2024-01-30T06:38:52;5.20;70.80
19258;DHT22;9763;48.780;9.212;2024-01-30T06:42:15;5.20;70.80
19258;DHT22;9763;48.780;9.212;2024-01-30T06:45:39;5.20;70.70
19258;DHT22;9763;48.780;9.212;2024-01-30T06:49:02;5.20;70.90
19258;DHT22;9763;48.780;9.212;2024-01-30T06:52:27;5.20;70.90
19258;DHT22;9763;48.780;9.212;2024-01-30T06:55:52;5.20;71.00
19258;DHT22;9763;48.780;9.212;2024-01-30T06:59:15;5.20;71.00
19258;DHT22;9763;48.780;9.212;2024-01-30T07:02:39;5.20;71.20
19258;DHT22;9763;48.780;9.212;2024-01-30T07:06:02;5.20;71.20
19258;DHT22;9763;48.780;9.212;2024-01-30T07:09:26;5.20;71.30
19258;DHT22;9763;48.780;9.212;2024-01-30T07:12:52;5.20;71.20
19258;DHT22;9763;48.780;9.212;2024-01-30T07:16:16;5.20;71.30
19258;DHT22;9763;48.780;9.212;2024-01-30T07:19:39;5.20;71.50
19258;DHT22;9763;48.780;9.212;2024-01-30T07:23:03;5.30;71.70
19258;DHT22;9763;48.780;9.212;2024-01-30T07:26:27;5.30;71.70
19258;DHT22;9763;48.780;9.212;2024-01-30T07:29:52;5.30;71.70
19258;DHT22;9763;48.780;9.212;2024-01-30T07:33:15;5.40;71.80
19258;DHT22;9763;48.780;9.212;2024-01-30T07:36:39;5.40;71.90
19258;DHT22;9763;48.780;9.212;2024-01-30T07:40:06;5.50;72.10
19258;DHT22;9763;48.780;9.212;2024-01-30T07:43:30;5.50;72.40
19258;DHT22;9763;48.780;9.212;2024-01-30T07:46:59;5.60;72.40
19258;DHT22;9763;48.780;9.212;2024-01-30T07:50:23;5.70;72.40
19258;DHT22;9763;48.780;9.212;2024-01-30T07:53:53;5.80;72.60
19258;DHT22;9763;48.780;9.212;2024-01-30T07:57:19;5.80;72.60
19258;DHT22;9763;48.780;9.212;2024-01-30T08:00:43;5.80;72.40
19258;DHT22;9763;48.780;9.212;2024-01-30T08:04:08;5.90;72.70
19258;DHT22;9763;48.780;9.212;2024-01-30T08:07:32;6.00;73.00
19258;DHT22;9763;48.780;9.212;2024-01-30T08:10:55;6.00;73.10
19258;DHT22;9763;48.780;9.212;2024-01-30T08:14:19;6.10;73.20
19258;DHT22;9763;48.780;9.212;2024-01-30T08:17:43;6.10;73.30
19258;DHT22;9763;48.780;9.212;2024-01-30T08:21:08;6.20;73.50
19258;DHT22;9763;48.780;9.212;2024-01-30T08:24:32;6.30;73.80
19258;DHT22;9763;48.780;9.212;2024-01-30T08:27:56;6.40;73.90
19258;DHT22;9763;48.780;9.212;2024-01-30T08:31:20;6.50;74.30
19258;DHT22;9763;48.780;9.212;2024-01-30T08:34:44;6.70;74.50
19258;DHT22;9763;48.780;9.212;2024-01-30T08:38:09;6.80;74.80
19258;DHT22;9763;48.780;9.212;2024-01-30T08:41:34;7.00;75.10
19258;DHT22;9763;48.780;9.212;2024-01-30T08:44:58;7.10;75.10
19258;DHT22;9763;48.780;9.212;2024-01-30T08:48:21;7.60;75.50
19258;DHT22;9763;48.780;9.212;2024-01-30T08:51:45;7.40;75.40
19258;DHT22;9763;48.780;9.212;2024-01-30T08:55:11;7.60;75.70
19258;DHT22;9763;48.780;9.212;2024-01-30T08:58:34;7.80;75.70
19258;DHT22;9763;48.780;9.212;2024-01-30T09:01:58;7.90;75.50
19258;DHT22;9763;48.780;9.212;2024-01-30T09:05:33;8.10;75.60
19258;DHT22;9763;48.780;9.212;2024-01-30T09:08:57;8.30;75.40
19258;DHT22;9763;48.780;9.212;2024-01-30T09:12:22;8.40;75.40
19258;DHT22;9763;48.780;9.212;2024-01-30T09:15:46;8.50;75.40
19258;DHT22;9763;48.780;9.212;2024-01-30T09:19:09;8.60;75.40
19258;DHT22;9763;48.780;9.212;2024-01-30T09:22:33;8.70;75.10
19258;DHT22;9763;48.780;9.212;2024-01-30T09:25:57;8.80;75.10
19258;DHT22;9763;48.780;9.212;2024-01-30T09:29:22;8.90;75.10
19258;DHT22;9763;48.780;9.212;2024-01-30T09:32:45;8.90;74.80
19258;DHT22;9763;48.780;9.212;2024-01-30T09:36:09;8.90;74.80
19258;DHT22;9763;48.780;9.212;2024-01-30T09:39:32;9.00;75.00
19258;DHT22;9763;48.780;9.212;2024-01-30T09:42:56;9.10;75.30
19258;DHT22;9763;48.780;9.212;2024-01-30T09:46:28;9.10;75.20
19258;DHT22;9763;48.780;9.212;2024-01-30T09:49:55;9.10;75.00
19258;DHT22;9763;48.780;9.212;2024-01-30T09:53:20;9.40;75.60
19258;DHT22;9763;48.780;9.212;2024-01-30T09:56:45;9.30;75.70
19258;DHT22;9763;48.780;9.212;2024-01-30T10:00:12;9.40;75.90
19258;DHT22;9763;48.780;9.212;2024-01-30T10:03:37;9.60;76.00
19258;DHT22;9763;48.780;9.212;2024-01-30T10:07:02;9.70;75.80
19258;DHT22;9763;48.780;9.212;2024-01-30T10:10:26;9.90;76.10
19258;DHT22;9763;48.780;9.212;2024-01-30T10:13:50;10.10;75.10
19258;DHT22;9763;48.780;9.212;2024-01-30T10:17:14;10.20;75.30
19258;DHT22;9763;48.780;9.212;2024-01-30T10:20:51;10.40;75.30
19258;DHT22;9763;48.780;9.212;2024-01-30T10:24:15;10.50;75.10
19258;DHT22;9763;48.780;9.212;2024-01-30T10:27:39;10.60;75.00
19258;DHT22;9763;48.780;9.212;2024-01-30T10:31:03;10.80;75.00
19258;DHT22;9763;48.780;9.212;2024-01-30T10:34:29;10.90;75.00
19258;DHT22;9763;48.780;9.212;2024-01-30T10:37:57;11.00;75.00
19258;DHT22;9763;48.780;9.212;2024-01-30T10:41:26;11.10;74.80
19258;DHT22;9763;48.780;9.212;2024-01-30T10:44:57;11.30;74.80
19258;DHT22;9763;48.780;9.212;2024-01-30T10:48:36;11.40;74.50
19258;DHT22;9763;48.780;9.212;2024-01-30T10:52:09;11.50;74.50
19258;DHT22;9763;48.780;9.212;2024-01-30T10:55:38;11.60;74.80
19258;DHT22;9763;48.780;9.212;2024-01-30T10:59:02;11.70;74.80
19258;DHT22;9763;48.780;9.212;2024-01-30T11:02:29;11.80;74.60
19258;DHT22;9763;48.780;9.212;2024-01-30T11:05:54;11.90;74.60
19258;DHT22;9763;48.780;9.212;2024-01-30T11:09:22;12.00;74.80
19258;DHT22;9763;48.780;9.212;2024-01-30T11:12:47;12.10;75.00
19258;DHT22;9763;48.780;9.212;2024-01-30T11:16:13;12.50;75.50
19258;DHT22;9763;48.780;9.212;2024-01-30T11:19:37;12.40;75.20
19258;DHT22;9763;48.780;9.212;2024-01-30T11:23:01;12.60;75.70
19258;DHT22;9763;48.780;9.212;2024-01-30T11:26:28;12.70;75.70
19258;DHT22;9763;48.780;9.212;2024-01-30T11:29:53;12.80;75.30
19258;DHT22;9763;48.780;9.212;2024-01-30T11:33:28;13.00;75.00
19258;DHT22;9763;48.780;9.212;2024-01-30T11:36:57;13.00;74.50
19258;DHT22;9763;48.780;9.212;2024-01-30T11:40:22;13.10;74.40
19258;DHT22;9763;48.780;9.212;2024-01-30T11:43:52;13.10;74.20
19258;DHT22;9763;48.780;9.212;2024-01-30T11:47:17;13.10;73.70
19258;DHT22;9763;48.780;9.212;2024-01-30T11:50:42;13.20;73.70
19258;DHT22;9763;48.780;9.212;2024-01-30T11:54:07;13.20;73.80
19258;DHT22;9763;48.780;9.212;2024-01-30T11:57:31;13.20;73.70
19258;DHT22;9763;48.780;9.212;2024-01-30T12:00:55;13.50;74.00
19258;DHT22;9763;48.780;9.212;2024-01-30T12:04:20;13.30;73.70
19258;DHT22;9763;48.780;9.212;2024-01-30T12:07:44;13.40;73.50
19258;DHT22;9763;48.780;9.212;2024-01-30T12:11:08;13.40;73.60
19258;DHT22;9763;48.780;9.212;2024-01-30T12:14:32;13.50;73.50
19258;DHT22;9763;48.780;9.212;2024-01-30T12:18:04;13.50;73.10
19258;DHT22;9763;48.780;9.212;2024-01-30T12:21:31;13.50;72.60
19258;DHT22;9763;48.780;9.212;2024-01-30T12:24:55;13.50;72.80
19258;DHT22;9763;48.780;9.212;2024-01-30T12:28:19;13.50;72.80
19258;DHT22;9763;48.780;9.212;2024-01-30T12:31:43;13.50;73.00
19258;DHT22;9763;48.780;9.212;2024-01-30T12:35:07;13.50;73.10
19258;DHT22;9763;48.780;9.212;2024-01-30T12:38:34;13.60;73.10
19258;DHT22;9763;48.780;9.212;2024-01-30T12:41:58;13.60;72.90
19258;DHT22;9763;48.780;9.212;2024-01-30T12:45:22;13.60;72.90
19258;DHT22;9763;48.780;9.212;2024-01-30T12:48:45;13.70;72.90
19258;DHT22;9763;48.780;9.212;2024-01-30T12:52:09;13.70;72.80
19258;DHT22;9763;48.780;9.212;2024-01-30T12:55:35;13.80;72.80
19258;DHT22;9763;48.780;9.212;2024-01-30T12:58:58;13.80;72.70
19258;DHT22;9763;48.780;9.212;2024-01-30T13:02:22;13.90;72.80
19258;DHT22;9763;48.780;9.212;2024-01-30T13:05:46;13.90;72.80
19258;DHT22;9763;48.780;9.212;2024-01-30T13:09:10;14.00;72.70
19258;DHT22;9763;48.780;9.212;2024-01-30T13:12:35;14.00;72.60
19258;DHT22;9763;48.780;9.212;2024-01-30T13:16:00;14.10;72.50
19258;DHT22;9763;48.780;9.212;2024-01-30T13:19:24;14.10;72.50
19258;DHT22;9763;48.780;9.212;2024-01-30T13:22:48;14.10;72.40
19258;DHT22;9763;48.780;9.212;2024-01-30T13:26:12;14.20;72.40
19258;DHT22;9763;48.780;9.212;2024-01-30T13:29:37;14.20;72.50
19258;DHT22;9763;48.780;9.212;2024-01-30T13:33:01;14.30;72.30
19258;DHT22;9763;48.780;9.212;2024-01-30T13:36:25;14.40;72.50
19258;DHT22;9763;48.780;9.212;2024-01-30T13:39:49;14.40;72.10
19258;DHT22;9763;48.780;9.212;2024-01-30T13:43:13;14.50;71.90
19258;DHT22;9763;48.780;9.212;2024-01-30T13:46:38;14.40;71.20
19258;DHT22;9763;48.780;9.212;2024-01-30T13:50:02;14.40;71.00
19258;DHT22;9763;48.780;9.212;2024-01-30T13:53:27;14.40;71.00
19258;DHT22;9763;48.780;9.212;2024-01-30T13:56:51;14.40;70.90
19258;DHT22;9763;48.780;9.212;2024-01-30T14:00:15;14.10;70.60
19258;DHT22;9763;48.780;9.212;2024-01-30T14:03:40;14.30;70.80
19258;DHT22;9763;48.780;9.212;2024-01-30T14:07:04;14.30;70.70
19258;DHT22;9763;48.780;9.212;2024-01-30T14:10:29;14.30;70.80
19258;DHT22;9763;48.780;9.212;2024-01-30T14:13:53;14.20;70.50
19258;DHT22;9763;48.780;9.212;2024-01-30T14:17:16;14.20;70.40
19258;DHT22;9763;48.780;9.212;2024-01-30T14:20:41;14.20;70.30
19258;DHT22;9763;48.780;9.212;2024-01-30T14:24:05;14.10;70.00
19258;DHT22;9763;48.780;9.212;2024-01-30T14:27:29;14.10;70.00
19258;DHT22;9763;48.780;9.212;2024-01-30T14:30:52;14.00;69.80
19258;DHT22;9763;48.780;9.212;2024-01-30T14:34:16;14.00;69.70
19258;DHT22;9763;48.780;9.212;2024-01-30T14:37:46;13.90;69.50
19258;DHT22;9763;48.780;9.212;2024-01-30T14:41:10;13.90;69.30
19258;DHT22;9763;48.780;9.212;2024-01-30T14:44:34;13.80;69.20
19258;DHT22;9763;48.780;9.212;2024-01-30T14:47:58;13.70;69.00
19258;DHT22;9763;48.780;9.212;2024-01-30T14:51:23;13.70;69.10
19258;DHT22;9763;48.780;9.212;2024-01-30T14:54:48;13.60;68.90
19258;DHT22;9763;48.780;9.212;2024-01-30T14:58:11;13.50;68.70
19258;DHT22;9763;48.780;9.212;2024-01-30T15:01:35;13.40;68.80
19258;DHT22;9763;48.780;9.212;2024-01-30T15:04:59;13.40;68.90
19258;DHT22;9763;48.780;9.212;2024-01-30T15:08:23;13.30;68.90
19258;DHT22;9763;48.780;9.212;2024-01-30T15:11:48;13.20;68.70
19258;DHT22;9763;48.780;9.212;2024-01-30T15:15:12;13.20;68.60
19258;DHT22;9763;48.780;9.212;2024-01-30T15:18:36;13.40;68.90
19258;DHT22;9763;48.780;9.212;2024-01-30T15:21:59;13.00;68.50
19258;DHT22;9763;48.780;9.212;2024-01-30T15:25:23;13.00;68.50
19258;DHT22;9763;48.780;9.212;2024-01-30T15:28:48;12.90;68.60
19258;DHT22;9763;48.780;9.212;2024-01-30T15:32:11;12.80;68.50
19258;DHT22;9763;48.780;9.212;2024-01-30T15:35:35;12.70;68.50
19258;DHT22;9763;48.780;9.212;2024-01-30T15:39:00;12.60;68.30
19258;DHT22;9763;48.780;9.212;2024-01-30T15:42:24;12.60;68.20
19258;DHT22;9763;48.780;9.212;2024-01-30T15:45:49;12.50;68.20
19258;DHT22;9763;48.780;9.212;2024-01-30T15:49:13;12.40;68.20
19258;DHT22;9763;48.780;9.212;2024-01-30T15:52:37;12.30;68.10
19258;DHT22;9763;48.780;9.212;2024-01-30T15:56:00;12.30;68.20
19258;DHT22;9763;48.780;9.212;2024-01-30T15:59:24;12.20;68.20
19258;DHT22;9763;48.780;9.212;2024-01-30T16:02:50;12.10;68.20
19258;DHT22;9763;48.780;9.212;2024-01-30T16:06:14;12.00;68.20
19258;DHT22;9763;48.780;9.212;2024-01-30T16:09:38;11.90;68.90
19258;DHT22;9763;48.780;9.212;2024-01-30T16:13:02;11.90;68.40
19258;DHT22;9763;48.780;9.212;2024-01-30T16:16:26;11.80;69.00
19258;DHT22;9763;48.780;9.212;2024-01-30T16:19:51;11.80;68.40
19258;DHT22;9763;48.780;9.212;2024-01-30T16:23:15;11.70;68.30
19258;DHT22;9763;48.780;9.212;2024-01-30T16:26:39;11.60;68.30
19258;DHT22;9763;48.780;9.212;2024-01-30T16:30:03;11.10;67.80
19258;DHT22;9763;48.780;9.212;2024-01-30T16:33:28;11.60;68.50
19258;DHT22;9763;48.780;9.212;2024-01-30T16:36:53;11.50;68.40
19258;DHT22;9763;48.780;9.212;2024-01-30T16:40:16;11.40;68.30
19258;DHT22;9763;48.780;9.212;2024-01-30T16:43:40;11.40;68.30
19258;DHT22;9763;48.780;9.212;2024-01-30T16:47:03;11.30;68.40
19258;DHT22;9763;48.780;9.212;2024-01-30T16:50:27;11.30;68.30
19258;DHT22;9763;48.780;9.212;2024-01-30T16:53:53;11.20;68.30
19258;DHT22;9763;48.780;9.212;2024-01-30T16:57:16;11.20;68.40
19258;DHT22;9763;48.780;9.212;2024-01-30T17:00:40;11.10;68.40
19258;DHT22;9763;48.780;9.212;2024-01-30T17:04:04;11.10;68.50
19258;DHT22;9763;48.780;9.212;2024-01-30T17:07:28;11.10;68.50
19258;DHT22;9763;48.780;9.212;2024-01-30T17:10:57;11.10;68.60
19258;DHT22;9763;48.780;9.212;2024-01-30T17:14:21;11.10;68.70
19258;DHT22;9763;48.780;9.212;2024-01-30T17:17:45;11.10;68.70
19258;DHT22;9763;48.780;9.212;2024-01-30T17:21:16;11.00;68.70
19258;DHT22;9763;48.780;9.212;2024-01-30T17:24:40;11.00;68.80
19258;DHT22;9763;48.780;9.212;2024-01-30T17:28:13;11.00;69.00
19258;DHT22;9763;48.780;9.212;2024-01-30T17:31:36;10.90;69.00
19258;DHT22;9763;48.780;9.212;2024-01-30T17:35:00;10.90;69.20
19258;DHT22;9763;48.780;9.212;2024-01-30T17:38:24;10.90;69.10
19258;DHT22;9763;48.780;9.212;2024-01-30T17:41:47;10.90;69.10
19258;DHT22;9763;48.780;9.212;2024-01-30T17:45:15;10.90;69.10
19258;DHT22;9763;48.780;9.212;2024-01-30T17:48:40;10.90;69.20
19258;DHT22;9763;48.780;9.212;2024-01-30T17:52:06;10.90;69.20
19258;DHT22;9763;48.780;9.212;2024-01-30T17:55:30;10.90;69.20
19258;DHT22;9763;48.780;9.212;2024-01-30T17:58:53;10.90;69.10
19258;DHT22;9763;48.780;9.212;2024-01-30T18:02:18;10.90;69.20
19258;DHT22;9763;48.780;9.212;2024-01-30T18:05:41;10.90;69.20
19258;DHT22;9763;48.780;9.212;2024-01-30T18:09:06;11.00;69.30
19258;DHT22;9763;48.780;9.212;2024-01-30T18:12:30;11.00;69.20
19258;DHT22;9763;48.780;9.212;2024-01-30T18:15:54;11.00;69.20
19258;DHT22;9763;48.780;9.212;2024-01-30T18:19:19;11.10;69.20
19258;DHT22;9763;48.780;9.212;2024-01-30T18:22:43;11.10;69.10
19258;DHT22;9763;48.780;9.212;2024-01-30T18:26:08;11.10;69.00
19258;DHT22;9763;48.780;9.212;2024-01-30T18:29:32;11.10;69.10
19258;DHT22;9763;48.780;9.212;2024-01-30T18:32:56;11.10;69.20
19258;DHT22;9763;48.780;9.212;2024-01-30T18:36:22;11.20;69.30
19258;DHT22;9763;48.780;9.212;2024-01-30T18:39:47;11.20;69.10
19258;DHT22;9763;48.780;9.212;2024-01-30T18:43:11;11.20;69.20
19258;DHT22;9763;48.780;9.212;2024-01-30T18:46:35;11.20;69.20
19258;DHT22;9763;48.780;9.212;2024-01-30T18:49:58;11.20;69.10
19258;DHT22;9763;48.780;9.212;2024-01-30T18:53:24;11.20;69.10
19258;DHT22;9763;48.780;9.212;2024-01-30T18:56:47;11.10;68.90
19258;DHT22;9763;48.780;9.212;2024-01-30T19:00:12;11.10;69.00
19258;DHT22;9763;48.780;9.212;2024-01-30T19:03:37;11.10;69.00
19258;DHT22;9763;48.780;9.212;2024-01-30T19:07:02;11.10;69.10
19258;DHT22;9763;48.780;9.212;2024-01-30T19:10:27;11.10;69.20
19258;DHT22;9763;48.780;9.212;2024-01-30T19:14:03;11.10;69.10
19258;DHT22;9763;48.780;9.212;2024-01-30T19:17:28;11.10;69.20
19258;DHT22;9763;48.780;9.212;2024-01-30T19:20:52;11.10;69.20
19258;DHT22;9763;48.780;9.212;2024-01-30T19:24:15;11.10;69.10
19258;DHT22;9763;48.780;9.212;2024-01-30T19:27:41;11.10;68.90
19258;DHT22;9763;48.780;9.212;2024-01-30T19:31:05;11.20;69.00
19258;DHT22;9763;48.780;9.212;2024-01-30T19:34:30;11.20;69.00
19258;DHT22;9763;48.780;9.212;2024-01-30T19:37:54;11.20;68.90
19258;DHT22;9763;48.780;9.212;2024-01-30T19:41:18;11.20;68.90
19258;DHT22;9763;48.780;9.212;2024-01-30T19:44:44;11.20;68.90
19258;DHT22;9763;48.780;9.212;2024-01-30T19:48:08;11.10;68.80
19258;DHT22;9763;48.780;9.212;2024-01-30T19:51:32;11.10;68.60
19258;DHT22;9763;48.780;9.212;2024-01-30T19:54:56;11.10;68.90
19258;DHT22;9763;48.780;9.212;2024-01-30T19:58:21;11.00;69.00
19258;DHT22;9763;48.780;9.212;2024-01-30T20:01:46;11.00;69.20
19258;DHT22;9763;48.780;9.212;2024-01-30T20:05:10;11.00;69.30
19258;DHT22;9763;48.780;9.212;2024-01-30T20:08:35;11.10;69.50
19258;DHT22;9763;48.780;9.212;2024-01-30T20:11:59;11.10;69.40
19258;DHT22;9763;48.780;9.212;2024-01-30T20:15:22;11.10;69.30
19258;DHT22;9763;48.780;9.212;2024-01-30T20:18:47;11.20;69.30
19258;DHT22;9763;48.780;9.212;2024-01-30T20:22:11;11.20;69.10
19258;DHT22;9763;48.780;9.212;2024-01-30T20:25:35;11.20;69.10
19258;DHT22;9763;48.780;9.212;2024-01-30T20:28:58;11.20;68.80
19258;DHT22;9763;48.780;9.212;2024-01-30T20:32:23;11.10;68.90
19258;DHT22;9763;48.780;9.212;2024-01-30T20:35:48;11.10;68.70
19258;DHT22;9763;48.780;9.212;2024-01-30T20:39:12;11.10;68.30
19258;DHT22;9763;48.780;9.212;2024-01-30T20:42:37;11.00;68.50
19258;DHT22;9763;48.780;9.212;2024-01-30T20:46:00;10.90;68.30
19258;DHT22;9763;48.780;9.212;2024-01-30T20:49:24;10.80;68.30
19258;DHT22;9763;48.780;9.212;2024-01-30T20:52:50;10.70;68.20
19258;DHT22;9763;48.780;9.212;2024-01-30T20:56:15;10.70;68.20
19258;DHT22;9763;48.780;9.212;2024-01-30T20:59:39;10.60;68.10
19258;DHT22;9763;48.780;9.212;2024-01-30T21:03:03;10.50;67.90
19258;DHT22;9763;48.780;9.212;2024-01-30T21:06:27;10.40;67.80
19258;DHT22;9763;48.780;9.212;2024-01-30T21:09:52;10.40;67.80
19258;DHT22;9763;48.780;9.212;2024-01-30T21:13:16;10.30;67.80
19258;DHT22;9763;48.780;9.212;2024-01-30T21:16:40;10.20;67.80
19258;DHT22;9763;48.780;9.212;2024-01-30T21:20:05;10.20;67.90
19258;DHT22;9763;48.780;9.212;2024-01-30T21:23:30;10.10;68.10
19258;DHT22;9763;48.780;9.212;2024-01-30T21:26:55;10.10;68.40
19258;DHT22;9763;48.780;9.212;2024-01-30T21:30:19;10.10;69.50
19258;DHT22;9763;48.780;9.212;2024-01-30T21:33:43;10.10;69.20
19258;DHT22;9763;48.780;9.212;2024-01-30T21:37:07;10.10;69.40
19258;DHT22;9763;48.780;9.212;2024-01-30T21:40:30;10.10;69.60
19258;DHT22;9763;48.780;9.212;2024-01-30T21:43:55;10.10;69.80
19258;DHT22;9763;48.780;9.212;2024-01-30T21:47:19;10.20;70.10
19258;DHT22;9763;48.780;9.212;2024-01-30T21:50:42;10.20;70.30
19258;DHT22;9763;48.780;9.212;2024-01-30T21:54:06;10.30;70.40
19258;DHT22;9763;48.780;9.212;2024-01-30T21:57:29;10.40;70.60
19258;DHT22;9763;48.780;9.212;2024-01-30T22:00:54;10.40;70.50